sensor_id;sensor_type;location;lat;lon;timestamp;P1;durP1;ratioP1;P2;durP2;ratioP2
56599;SDS011;51832;48.152;11.530;2023-03-05T00:04:03;36.80;;;14.73;;
56599;SDS011;51832;48.152;11.530;2023-03-05T00:09:06;35.47;;;14.27;;
56599;SDS011;51832;48.152;11.530;2023-03-05T00:14:07;31.60;;;14.95;;
56599;SDS011;51832;48.152;11.530;2023-03-05T00:19:07;34.53;;;14.75;;
56599;SDS011;51832;48.152;11.530;2023-03-05T00:24:13;39.25;;;15.35;;
56599;SDS011;51832;48.152;11.530;2023-03-05T00:29:17;38.17;;;15.60;;
56599;SDS011;51832;48.152;11.530;2023-03-05T00:34:20;35.90;;;15.00;;
56599;SDS011;51832;48.152;11.530;2023-03-05T00:39:21;39.60;;;14.80;;
56599;SDS011;51832;48.152;11.530;2023-03-05T00:44:22;38.75;;;14.80;;
56599;SDS011;51832;48.152;11.530;2023-03-05T00:49:23;36.90;;;15.70;;
56599;SDS011;51832;48.152;11.530;2023-03-05T00:54:23;38.88;;;16.15;;
56599;SDS011;51832;48.152;11.530;2023-03-05T00:59:23;32.83;;;14.07;;
56599;SDS011;51832;48.152;11.530;2023-03-05T01:04:24;33.75;;;13.10;;
56599;SDS011;51832;48.152;11.530;2023-03-05T01:09:24;33.88;;;14.60;;
56599;SDS011;51832;48.152;11.530;2023-03-05T01:14:25;34.33;;;15.30;;
56599;SDS011;51832;48.152;11.530;2023-03-05T01:19:27;34.25;;;14.38;;
56599;SDS011;51832;48.152;11.530;2023-03-05T01:24:29;42.47;;;15.23;;
56599;SDS011;51832;48.152;11.530;2023-03-05T01:29:30;36.40;;;14.60;;
56599;SDS011;51832;48.152;11.530;2023-03-05T01:34:30;37.60;;;15.07;;
56599;SDS011;51832;48.152;11.530;2023-03-05T01:39:31;36.47;;;15.80;;
56599;SDS011;51832;48.152;11.530;2023-03-05T01:44:31;38.78;;;15.13;;
56599;SDS011;51832;48.152;11.530;2023-03-05T01:49:37;41.40;;;15.48;;
56599;SDS011;51832;48.152;11.530;2023-03-05T01:54:42;35.58;;;14.18;;
56599;SDS011;51832;48.152;11.530;2023-03-05T01:59:46;37.85;;;14.88;;
56599;SDS011;51832;48.152;11.530;2023-03-05T02:04:57;36.10;;;14.38;;
56599;SDS011;51832;48.152;11.530;2023-03-05T02:10:13;34.47;;;14.40;;
56599;SDS011;51832;48.152;11.530;2023-03-05T02:15:24;40.70;;;15.05;;
56599;SDS011;51832;48.152;11.530;2023-03-05T02:20:26;40.85;;;15.23;;
56599;SDS011;51832;48.152;11.530;2023-03-05T02:25:28;42.50;;;16.23;;
56599;SDS011;51832;48.152;11.530;2023-03-05T02:30:29;38.80;;;14.50;;
56599;SDS011;51832;48.152;11.530;2023-03-05T02:35:30;39.70;;;14.93;;
56599;SDS011;51832;48.152;11.530;2023-03-05T02:40:31;36.97;;;14.98;;
56599;SDS011;51832;48.152;11.530;2023-03-05T02:45:31;40.65;;;15.57;;
56599;SDS011;51832;48.152;11.530;2023-03-05T02:50:32;41.33;;;16.70;;
56599;SDS011;51832;48.152;11.530;2023-03-05T02:55:33;41.97;;;14.15;;
56599;SDS011;51832;48.152;11.530;2023-03-05T03:00:34;37.08;;;13.82;;
56599;SDS011;51832;48.152;11.530;2023-03-05T03:05:35;37.83;;;15.38;;
56599;SDS011;51832;48.152;11.530;2023-03-05T03:10:36;40.40;;;15.45;;
56599;SDS011;51832;48.152;11.530;2023-03-05T03:15:36;37.85;;;13.73;;
56599;SDS011;51832;48.152;11.530;2023-03-05T03:20:38;34.15;;;13.52;;
56599;SDS011;51832;48.152;11.530;2023-03-05T03:25:38;32.08;;;13.32;;
56599;SDS011;51832;48.152;11.530;2023-03-05T03:30:39;41.42;;;15.48;;
56599;SDS011;51832;48.152;11.530;2023-03-05T03:35:39;36.95;;;14.18;;
56599;SDS011;51832;48.152;11.530;2023-03-05T03:40:40;42.50;;;14.55;;
56599;SDS011;51832;48.152;11.530;2023-03-05T03:45:42;37.80;;;14.15;;
56599;SDS011;51832;48.152;11.530;2023-03-05T03:50:43;32.40;;;13.60;;
56599;SDS011;51832;48.152;11.530;2023-03-05T03:55:43;38.95;;;15.27;;
56599;SDS011;51832;48.152;11.530;2023-03-05T04:00:46;34.90;;;13.98;;
56599;SDS011;51832;48.152;11.530;2023-03-05T04:05:47;34.28;;;14.05;;
56599;SDS011;51832;48.152;11.530;2023-03-05T04:10:47;39.92;;;14.07;;
56599;SDS011;51832;48.152;11.530;2023-03-05T04:15:48;33.95;;;13.60;;
56599;SDS011;51832;48.152;11.530;2023-03-05T04:20:49;37.03;;;13.57;;
56599;SDS011;51832;48.152;11.530;2023-03-05T04:25:49;36.65;;;14.77;;
56599;SDS011;51832;48.152;11.530;2023-03-05T04:30:50;34.88;;;13.65;;
56599;SDS011;51832;48.152;11.530;2023-03-05T04:35:51;42.53;;;15.57;;
56599;SDS011;51832;48.152;11.530;2023-03-05T04:40:52;36.97;;;14.02;;
56599;SDS011;51832;48.152;11.530;2023-03-05T04:45:53;36.03;;;14.10;;
56599;SDS011;51832;48.152;11.530;2023-03-05T04:50:54;35.30;;;14.43;;
56599;SDS011;51832;48.152;11.530;2023-03-05T04:55:56;39.50;;;14.50;;
56599;SDS011;51832;48.152;11.530;2023-03-05T05:01:01;40.38;;;14.77;;
56599;SDS011;51832;48.152;11.530;2023-03-05T05:06:02;41.03;;;15.88;;
56599;SDS011;51832;48.152;11.530;2023-03-05T05:11:04;37.10;;;14.95;;
56599;SDS011;51832;48.152;11.530;2023-03-05T05:16:07;41.50;;;14.90;;
56599;SDS011;51832;48.152;11.530;2023-03-05T05:21:11;42.70;;;15.27;;
56599;SDS011;51832;48.152;11.530;2023-03-05T05:26:13;39.10;;;14.93;;
56599;SDS011;51832;48.152;11.530;2023-03-05T05:31:14;37.45;;;14.30;;
56599;SDS011;51832;48.152;11.530;2023-03-05T05:36:15;37.58;;;14.43;;
56599;SDS011;51832;48.152;11.530;2023-03-05T05:41:18;45.73;;;16.57;;
56599;SDS011;51832;48.152;11.530;2023-03-05T05:46:19;39.53;;;15.23;;
56599;SDS011;51832;48.152;11.530;2023-03-05T05:51:21;38.42;;;13.95;;
56599;SDS011;51832;48.152;11.530;2023-03-05T05:56:22;40.57;;;14.73;;
56599;SDS011;51832;48.152;11.530;2023-03-05T06:01:24;34.15;;;14.35;;
56599;SDS011;51832;48.152;11.530;2023-03-05T06:06:27;38.22;;;14.23;;
56599;SDS011;51832;48.152;11.530;2023-03-05T06:11:28;32.40;;;13.40;;
56599;SDS011;51832;48.152;11.530;2023-03-05T06:16:29;32.25;;;12.50;;
56599;SDS011;51832;48.152;11.530;2023-03-05T06:21:30;36.40;;;13.68;;
56599;SDS011;51832;48.152;11.530;2023-03-05T06:26:32;33.40;;;13.13;;
56599;SDS011;51832;48.152;11.530;2023-03-05T06:31:33;39.33;;;13.73;;
56599;SDS011;51832;48.152;11.530;2023-03-05T06:36:33;34.53;;;13.15;;
56599;SDS011;51832;48.152;11.530;2023-03-05T06:41:33;33.92;;;13.52;;
56599;SDS011;51832;48.152;11.530;2023-03-05T06:46:34;31.98;;;12.40;;
56599;SDS011;51832;48.152;11.530;2023-03-05T06:51:39;32.53;;;12.23;;
56599;SDS011;51832;48.152;11.530;2023-03-05T06:56:41;29.00;;;11.90;;
56599;SDS011;51832;48.152;11.530;2023-03-05T07:01:43;34.65;;;12.48;;
56599;SDS011;51832;48.152;11.530;2023-03-05T07:06:44;31.92;;;13.57;;
56599;SDS011;51832;48.152;11.530;2023-03-05T07:11:45;32.80;;;12.98;;
56599;SDS011;51832;48.152;11.530;2023-03-05T07:16:45;31.13;;;13.45;;
56599;SDS011;51832;48.152;11.530;2023-03-05T07:21:46;31.23;;;11.98;;
56599;SDS011;51832;48.152;11.530;2023-03-05T07:26:46;33.20;;;13.32;;
56599;SDS011;51832;48.152;11.530;2023-03-05T07:31:46;30.08;;;12.07;;
56599;SDS011;51832;48.152;11.530;2023-03-05T07:36:50;36.75;;;13.20;;
56599;SDS011;51832;48.152;11.530;2023-03-05T07:41:51;30.05;;;13.23;;
56599;SDS011;51832;48.152;11.530;2023-03-05T07:46:51;35.60;;;13.35;;
56599;SDS011;51832;48.152;11.530;2023-03-05T07:51:52;27.20;;;12.13;;
56599;SDS011;51832;48.152;11.530;2023-03-05T07:56:53;33.58;;;12.95;;
56599;SDS011;51832;48.152;11.530;2023-03-05T08:01:54;33.05;;;11.95;;
56599;SDS011;51832;48.152;11.530;2023-03-05T08:06:54;30.40;;;12.93;;
56599;SDS011;51832;48.152;11.530;2023-03-05T08:11:55;32.67;;;12.68;;
56599;SDS011;51832;48.152;11.530;2023-03-05T08:16:55;36.38;;;12.98;;
56599;SDS011;51832;48.152;11.530;2023-03-05T08:21:55;35.75;;;13.98;;
56599;SDS011;51832;48.152;11.530;2023-03-05T08:26:56;32.03;;;12.30;;
56599;SDS011;51832;48.152;11.530;2023-03-05T08:31:57;36.00;;;12.38;;
56599;SDS011;51832;48.152;11.530;2023-03-05T08:36:57;32.28;;;12.05;;
56599;SDS011;51832;48.152;11.530;2023-03-05T08:41:58;32.05;;;11.55;;
56599;SDS011;51832;48.152;11.530;2023-03-05T08:46:58;37.80;;;13.35;;
56599;SDS011;51832;48.152;11.530;2023-03-05T08:51:58;33.45;;;12.82;;
56599;SDS011;51832;48.152;11.530;2023-03-05T08:56:59;34.55;;;12.25;;
56599;SDS011;51832;48.152;11.530;2023-03-05T09:02:00;32.40;;;12.85;;
56599;SDS011;51832;48.152;11.530;2023-03-05T09:07:00;32.65;;;12.85;;
56599;SDS011;51832;48.152;11.530;2023-03-05T09:12:01;36.13;;;12.52;;
56599;SDS011;51832;48.152;11.530;2023-03-05T09:17:01;35.88;;;14.50;;
56599;SDS011;51832;48.152;11.530;2023-03-05T09:22:02;32.95;;;12.93;;
56599;SDS011;51832;48.152;11.530;2023-03-05T09:27:02;35.80;;;12.98;;
56599;SDS011;51832;48.152;11.530;2023-03-05T09:32:03;36.22;;;12.80;;
56599;SDS011;51832;48.152;11.530;2023-03-05T09:37:04;31.77;;;12.25;;
56599;SDS011;51832;48.152;11.530;2023-03-05T09:52:54;35.25;;;12.80;;
56599;SDS011;51832;48.152;11.530;2023-03-05T09:58:02;36.15;;;12.70;;
56599;SDS011;51832;48.152;11.530;2023-03-05T10:03:09;36.45;;;13.18;;
56599;SDS011;51832;48.152;11.530;2023-03-05T10:08:15;33.40;;;13.10;;
56599;SDS011;51832;48.152;11.530;2023-03-05T10:13:22;37.50;;;13.95;;
56599;SDS011;51832;48.152;11.530;2023-03-05T10:18:28;40.63;;;16.30;;
56599;SDS011;51832;48.152;11.530;2023-03-05T10:23:49;33.97;;;13.40;;
56599;SDS011;51832;48.152;11.530;2023-03-05T10:29:05;34.17;;;13.55;;
56599;SDS011;51832;48.152;11.530;2023-03-05T10:34:27;28.60;;;11.57;;
56599;SDS011;51832;48.152;11.530;2023-03-05T10:45:00;36.83;;;13.30;;
56599;SDS011;51832;48.152;11.530;2023-03-05T10:50:25;37.23;;;12.60;;
56599;SDS011;51832;48.152;11.530;2023-03-05T10:55:27;36.65;;;13.35;;
56599;SDS011;51832;48.152;11.530;2023-03-05T11:00:27;35.45;;;12.82;;
56599;SDS011;51832;48.152;11.530;2023-03-05T11:10:38;31.23;;;13.35;;
56599;SDS011;51832;48.152;11.530;2023-03-05T11:15:39;35.78;;;13.23;;
56599;SDS011;51832;48.152;11.530;2023-03-05T11:20:40;33.63;;;13.02;;
56599;SDS011;51832;48.152;11.530;2023-03-05T11:25:50;30.80;;;12.60;;
56599;SDS011;51832;48.152;11.530;2023-03-05T11:36:23;34.42;;;12.77;;
56599;SDS011;51832;48.152;11.530;2023-03-05T11:41:27;31.92;;;12.45;;
56599;SDS011;51832;48.152;11.530;2023-03-05T11:46:34;34.80;;;13.35;;
56599;SDS011;51832;48.152;11.530;2023-03-05T11:51:44;31.80;;;12.43;;
56599;SDS011;51832;48.152;11.530;2023-03-05T11:56:53;31.17;;;12.40;;
56599;SDS011;51832;48.152;11.530;2023-03-05T12:01:54;34.88;;;12.38;;
56599;SDS011;51832;48.152;11.530;2023-03-05T12:06:56;25.52;;;10.60;;
56599;SDS011;51832;48.152;11.530;2023-03-05T12:12:05;26.02;;;10.70;;
56599;SDS011;51832;48.152;11.530;2023-03-05T12:22:35;24.27;;;10.57;;
56599;SDS011;51832;48.152;11.530;2023-03-05T12:27:38;25.10;;;10.60;;
56599;SDS011;51832;48.152;11.530;2023-03-05T12:42:43;21.90;;;10.20;;
56599;SDS011;51832;48.152;11.530;2023-03-05T12:47:46;25.17;;;9.40;;
56599;SDS011;51832;48.152;11.530;2023-03-05T12:53:17;28.10;;;10.50;;
56599;SDS011;51832;48.152;11.530;2023-03-05T13:03:55;21.38;;;9.13;;
56599;SDS011;51832;48.152;11.530;2023-03-05T13:19:28;25.30;;;9.07;;
56599;SDS011;51832;48.152;11.530;2023-03-05T13:24:31;18.65;;;8.30;;
56599;SDS011;51832;48.152;11.530;2023-03-05T13:29:32;20.20;;;8.63;;
56599;SDS011;51832;48.152;11.530;2023-03-05T13:34:33;20.80;;;8.80;;
56599;SDS011;51832;48.152;11.530;2023-03-05T13:39:40;22.38;;;9.25;;
56599;SDS011;51832;48.152;11.530;2023-03-05T13:50:06;20.73;;;9.07;;
56599;SDS011;51832;48.152;11.530;2023-03-05T13:55:11;20.55;;;8.73;;
56599;SDS011;51832;48.152;11.530;2023-03-05T14:05:35;22.00;;;9.23;;
56599;SDS011;51832;48.152;11.530;2023-03-05T14:10:37;23.77;;;9.00;;
56599;SDS011;51832;48.152;11.530;2023-03-05T14:15:37;21.52;;;9.25;;
56599;SDS011;51832;48.152;11.530;2023-03-05T14:20:39;23.88;;;9.13;;
56599;SDS011;51832;48.152;11.530;2023-03-05T14:31:21;24.48;;;9.85;;
56599;SDS011;51832;48.152;11.530;2023-03-05T14:36:25;24.23;;;9.13;;
56599;SDS011;51832;48.152;11.530;2023-03-05T14:46:39;25.02;;;10.13;;
56599;SDS011;51832;48.152;11.530;2023-03-05T14:51:41;19.98;;;9.77;;
56599;SDS011;51832;48.152;11.530;2023-03-05T15:01:44;22.13;;;9.85;;
56599;SDS011;51832;48.152;11.530;2023-03-05T15:06:44;22.58;;;9.63;;
56599;SDS011;51832;48.152;11.530;2023-03-05T15:11:49;23.70;;;10.00;;
56599;SDS011;51832;48.152;11.530;2023-03-05T15:16:50;25.88;;;10.07;;
56599;SDS011;51832;48.152;11.530;2023-03-05T15:21:50;23.73;;;10.30;;
56599;SDS011;51832;48.152;11.530;2023-03-05T15:26:50;25.75;;;10.38;;
56599;SDS011;51832;48.152;11.530;2023-03-05T15:31:51;26.92;;;10.00;;
56599;SDS011;51832;48.152;11.530;2023-03-05T15:36:52;25.95;;;10.32;;
56599;SDS011;51832;48.152;11.530;2023-03-05T15:41:54;26.95;;;10.75;;
56599;SDS011;51832;48.152;11.530;2023-03-05T15:46:55;21.52;;;9.32;;
56599;SDS011;51832;48.152;11.530;2023-03-05T15:51:55;23.50;;;10.02;;
56599;SDS011;51832;48.152;11.530;2023-03-05T15:56:56;19.17;;;8.25;;
56599;SDS011;51832;48.152;11.530;2023-03-05T16:01:56;19.13;;;7.88;;
56599;SDS011;51832;48.152;11.530;2023-03-05T16:06:57;18.08;;;7.07;;
56599;SDS011;51832;48.152;11.530;2023-03-05T16:12:02;15.73;;;6.28;;
56599;SDS011;51832;48.152;11.530;2023-03-05T16:17:06;17.95;;;8.70;;
56599;SDS011;51832;48.152;11.530;2023-03-05T16:22:07;17.25;;;7.03;;
56599;SDS011;51832;48.152;11.530;2023-03-05T16:27:08;15.65;;;7.05;;
56599;SDS011;51832;48.152;11.530;2023-03-05T16:32:09;12.85;;;5.90;;
56599;SDS011;51832;48.152;11.530;2023-03-05T16:37:09;15.48;;;6.72;;
56599;SDS011;51832;48.152;11.530;2023-03-05T16:42:18;15.82;;;6.90;;
56599;SDS011;51832;48.152;11.530;2023-03-05T16:47:18;14.70;;;7.18;;
56599;SDS011;51832;48.152;11.530;2023-03-05T16:52:19;10.82;;;5.80;;
56599;SDS011;51832;48.152;11.530;2023-03-05T16:57:19;14.25;;;6.25;;
56599;SDS011;51832;48.152;11.530;2023-03-05T17:02:22;12.63;;;6.50;;
56599;SDS011;51832;48.152;11.530;2023-03-05T17:07:23;14.57;;;6.07;;
56599;SDS011;51832;48.152;11.530;2023-03-05T17:12:25;15.23;;;7.22;;
56599;SDS011;51832;48.152;11.530;2023-03-05T17:17:25;15.98;;;7.13;;
56599;SDS011;51832;48.152;11.530;2023-03-05T17:22:26;14.23;;;7.05;;
56599;SDS011;51832;48.152;11.530;2023-03-05T17:27:26;14.32;;;6.72;;
56599;SDS011;51832;48.152;11.530;2023-03-05T17:32:28;16.48;;;7.32;;
56599;SDS011;51832;48.152;11.530;2023-03-05T17:37:28;15.57;;;6.82;;
56599;SDS011;51832;48.152;11.530;2023-03-05T17:42:29;14.23;;;6.97;;
56599;SDS011;51832;48.152;11.530;2023-03-05T17:47:29;15.90;;;7.78;;
56599;SDS011;51832;48.152;11.530;2023-03-05T17:52:32;17.45;;;6.43;;
56599;SDS011;51832;48.152;11.530;2023-03-05T17:57:34;20.52;;;7.10;;
56599;SDS011;51832;48.152;11.530;2023-03-05T18:02:35;15.38;;;8.05;;
56599;SDS011;51832;48.152;11.530;2023-03-05T18:07:36;13.75;;;6.50;;
56599;SDS011;51832;48.152;11.530;2023-03-05T18:12:36;15.73;;;6.40;;
56599;SDS011;51832;48.152;11.530;2023-03-05T18:17:37;14.73;;;6.30;;
56599;SDS011;51832;48.152;11.530;2023-03-05T18:22:37;13.35;;;6.65;;
56599;SDS011;51832;48.152;11.530;2023-03-05T18:27:38;13.15;;;6.93;;
56599;SDS011;51832;48.152;11.530;2023-03-05T18:32:38;14.15;;;6.18;;
56599;SDS011;51832;48.152;11.530;2023-03-05T18:37:39;14.23;;;6.85;;
56599;SDS011;51832;48.152;11.530;2023-03-05T18:42:39;17.88;;;7.07;;
56599;SDS011;51832;48.152;11.530;2023-03-05T18:47:40;14.20;;;7.18;;
56599;SDS011;51832;48.152;11.530;2023-03-05T18:52:41;16.17;;;6.40;;
56599;SDS011;51832;48.152;11.530;2023-03-05T18:57:42;17.38;;;7.70;;
56599;SDS011;51832;48.152;11.530;2023-03-05T19:02:42;16.70;;;7.50;;
56599;SDS011;51832;48.152;11.530;2023-03-05T19:07:42;13.60;;;6.30;;
56599;SDS011;51832;48.152;11.530;2023-03-05T19:18:53;14.90;;;7.07;;
56599;SDS011;51832;48.152;11.530;2023-03-05T19:24:14;12.13;;;6.82;;
56599;SDS011;51832;48.152;11.530;2023-03-05T19:29:15;14.68;;;6.88;;
56599;SDS011;51832;48.152;11.530;2023-03-05T19:34:16;17.40;;;6.88;;
56599;SDS011;51832;48.152;11.530;2023-03-05T19:39:17;14.75;;;6.78;;
56599;SDS011;51832;48.152;11.530;2023-03-05T19:44:18;14.15;;;6.75;;
56599;SDS011;51832;48.152;11.530;2023-03-05T19:49:19;12.70;;;6.45;;
56599;SDS011;51832;48.152;11.530;2023-03-05T19:54:20;16.02;;;7.60;;
56599;SDS011;51832;48.152;11.530;2023-03-05T19:59:21;16.08;;;7.97;;
56599;SDS011;51832;48.152;11.530;2023-03-05T20:04:22;19.88;;;7.80;;
56599;SDS011;51832;48.152;11.530;2023-03-05T20:09:23;15.15;;;7.40;;
56599;SDS011;51832;48.152;11.530;2023-03-05T20:14:23;14.45;;;7.10;;
56599;SDS011;51832;48.152;11.530;2023-03-05T20:19:24;15.70;;;7.18;;
56599;SDS011;51832;48.152;11.530;2023-03-05T20:24:25;18.10;;;8.25;;
56599;SDS011;51832;48.152;11.530;2023-03-05T20:29:25;23.23;;;8.90;;
56599;SDS011;51832;48.152;11.530;2023-03-05T20:34:25;21.08;;;8.38;;
56599;SDS011;51832;48.152;11.530;2023-03-05T20:39:26;18.30;;;8.75;;
56599;SDS011;51832;48.152;11.530;2023-03-05T20:44:27;17.70;;;8.48;;
56599;SDS011;51832;48.152;11.530;2023-03-05T20:49:27;17.00;;;8.60;;
56599;SDS011;51832;48.152;11.530;2023-03-05T20:54:27;21.23;;;9.32;;
56599;SDS011;51832;48.152;11.530;2023-03-05T20:59:28;17.50;;;9.07;;
56599;SDS011;51832;48.152;11.530;2023-03-05T21:04:28;17.80;;;8.80;;
56599;SDS011;51832;48.152;11.530;2023-03-05T21:09:29;21.02;;;8.70;;
56599;SDS011;51832;48.152;11.530;2023-03-05T21:14:30;27.52;;;10.32;;
56599;SDS011;51832;48.152;11.530;2023-03-05T21:19:36;21.67;;;8.65;;
56599;SDS011;51832;48.152;11.530;2023-03-05T21:24:50;22.42;;;9.07;;
56599;SDS011;51832;48.152;11.530;2023-03-05T21:30:20;15.93;;;7.65;;
56599;SDS011;51832;48.152;11.530;2023-03-05T21:35:21;19.60;;;9.40;;
56599;SDS011;51832;48.152;11.530;2023-03-05T21:40:21;17.65;;;7.57;;
56599;SDS011;51832;48.152;11.530;2023-03-05T21:45:24;19.30;;;9.60;;
56599;SDS011;51832;48.152;11.530;2023-03-05T21:50:26;25.90;;;9.63;;
56599;SDS011;51832;48.152;11.530;2023-03-05T21:55:32;20.95;;;8.95;;
56599;SDS011;51832;48.152;11.530;2023-03-05T22:00:46;20.15;;;8.80;;
56599;SDS011;51832;48.152;11.530;2023-03-05T22:05:47;19.83;;;8.95;;
56599;SDS011;51832;48.152;11.530;2023-03-05T22:10:48;19.75;;;8.32;;
56599;SDS011;51832;48.152;11.530;2023-03-05T22:15:50;22.25;;;9.68;;
56599;SDS011;51832;48.152;11.530;2023-03-05T22:20:53;18.23;;;8.30;;
56599;SDS011;51832;48.152;11.530;2023-03-05T22:26:04;18.27;;;8.23;;
56599;SDS011;51832;48.152;11.530;2023-03-05T22:31:06;17.33;;;8.13;;
56599;SDS011;51832;48.152;11.530;2023-03-05T22:36:07;15.55;;;7.57;;
56599;SDS011;51832;48.152;11.530;2023-03-05T22:41:09;14.80;;;6.80;;
56599;SDS011;51832;48.152;11.530;2023-03-05T22:46:12;13.85;;;7.05;;
56599;SDS011;51832;48.152;11.530;2023-03-05T22:51:18;16.50;;;7.10;;
56599;SDS011;51832;48.152;11.530;2023-03-05T22:56:19;15.15;;;7.70;;
56599;SDS011;51832;48.152;11.530;2023-03-05T23:01:21;18.33;;;8.23;;
56599;SDS011;51832;48.152;11.530;2023-03-05T23:06:23;17.92;;;8.43;;
56599;SDS011;51832;48.152;11.530;2023-03-05T23:11:23;22.83;;;10.05;;
56599;SDS011;51832;48.152;11.530;2023-03-05T23:16:24;19.65;;;9.90;;
56599;SDS011;51832;48.152;11.530;2023-03-05T23:21:24;20.20;;;10.20;;
56599;SDS011;51832;48.152;11.530;2023-03-05T23:26:25;19.38;;;9.27;;
56599;SDS011;51832;48.152;11.530;2023-03-05T23:31:25;20.38;;;8.77;;
56599;SDS011;51832;48.152;11.530;2023-03-05T23:36:26;19.20;;;8.43;;
56599;SDS011;51832;48.152;11.530;2023-03-05T23:41:26;19.98;;;8.85;;
56599;SDS011;51832;48.152;11.530;2023-03-05T23:46:26;18.20;;;8.40;;
56599;SDS011;51832;48.152;11.530;2023-03-05T23:51:27;18.92;;;7.90;;
56599;SDS011;51832;48.152;11.530;2023-03-05T23:56:27;19.90;;;7.97;;
